Mauston, WI

4:15 PM CST on December 27, 2014 (GMT -0600)
Juneau County Weather | Change Station
CLOSE
Current Station
Personal Weather Station
Location: Mauston, WI
Elevation: 873 ft
Nearby Weather Stations

Elev 873 ft 43.80 °N, 90.07 °W | Updated 4 seconds ago

Overcast
Overcast
30.0 °F
Feels Like 23 °F
N
7.5
Wind Variable Wind from WNW
Gusts 8.1 mph

Today
High -- | Low -- °F
--% Chance of Precip.
Yesterday
High -- | Low -- °F
Precip. -- in
7:33 AM 4:29 PM
Waxing Crescent, 40% visible
Pressure 30.02 in
Visibility 10.0 miles
Clouds Mostly Cloudy 1500 ft
Windchill 23 °F
Dew Point 27 °F
Humidity 89%
Rainfall 0.05 in
Snow Depth Not available.
UV 0.0 out of 12
Pollen .10 out of 12
Air Quality Not available.
Flu Activity Not available.
SPECI KVOK 272208Z AUTO 31009KT 10SM BKN015 M02/M02 A3002 RMK AO2 BKN V SCT

More Conditions Fewer Conditions

Pressure 30.02 in
Visibility 10.0 miles
Clouds Mostly Cloudy 1500 ft
Windchill 23 °F
Dew Point 27 °F
Humidity 89%
Rainfall 0.05 in
Snow Depth Not available.
UV 0.0 out of 12
Pollen .10 out of 12
Air Quality Not available.
Flu Activity Not available.
SPECI KVOK 272208Z AUTO 31009KT 10SM BKN015 M02/M02 A3002 RMK AO2 BKN V SCT

More Conditions Fewer Conditions

10-Day Weather Forecast

Almanac

Astronomy

Dec. 27, 2014 Rise Set
Actual Time
Civil Twilight
Nautical Twilight
Astronomical Twilight
Moon
Length of Visible Light
Length of Day
Tomorrow will be .
, % of the Moon is Illuminated

Today's Extremes

State Highs State Lows

Community

WunderPhotos

Upload Photos

1,781,090 photos uploaded!

WunderBlogs® & News

Nearby

Air Quality

  Air Quality AQ Index Pollutant
Not available.

Snow Depth

Station Depth Elevation

Earthquake Activity

City Distance Mag. Time & Date
Minimum magnitude displayed is 2.5.

Coastal Water Temperatures

Place Temperature

Nearby Weather Stations